• Join FlightAware (Why Join?)
  • Login
  • US Flag 
09:36AM EDT


 

Airport Tracker/Info


-or-


 

Live Flight TrackerFlight Track Log ✈ UAE843 ✈ 05-May-2013 ✈ OMDB / DXB - OTBD

Flight Track Log - Related Links

Times and Time Zones

All times are in EDT time to prevent confusion due to time zone crossing. See the UAE843 flight status page for this flight to view local times or setup timezone preferences in your user account.

Time Position Orientation Groundspeed Altitude Reporting Facility
EDT Latitude Longitude Course Direction KTS MPH feet Rate Location/Type
06:30AM 25.2600 55.3580 360° North 400  Level FlightAware
06:31AM 25.2700 55.3420 305° West 154 177 1,600 2,040 Climbing FlightAware
06:31AM 25.2790 55.3250 300° West 163 188 2,100 900 Climbing FlightAware
06:32AM 25.2930 55.2990 301° West 206 237 2,500 720 Climbing FlightAware
06:32AM 25.2950 55.2800 277° West 234 269 2,700 960 Climbing FlightAware
06:32AM 25.2920 55.2690 253° West 244 281 2,900 2,160 Climbing FlightAware
06:32AM 25.2810 55.2520 234° Southwest 257 296 3,600 3,180 Climbing FlightAware
06:33AM 25.2530 55.2080 235° Southwest 265 305 5,300 2,760 Climbing FlightAware
06:33AM 25.2340 55.1750 238° Southwest 273 314 6,400 1,620 Climbing FlightAware
06:34AM 25.2140 55.1410 237° Southwest 303 349 6,800 900 Climbing FlightAware
06:34AM 25.2030 55.1240 234° Southwest 320 368 7,000 1,200 Climbing FlightAware
06:34AM 25.1750 55.0780 236° Southwest 348 400 7,700 1,800 Climbing FlightAware
06:35AM 25.1660 55.0630 236° Southwest 347 399 8,200 1,920 Climbing FlightAware
06:35AM 25.1450 55.0170 243° Southwest 356 410 9,000 2,040 Climbing FlightAware
06:36AM 25.1420 54.9350 268° West 361 415 10,800 2,280 Climbing FlightAware
06:36AM 25.1500 54.8880 281° West 365 420 11,700 2,100 Climbing FlightAware
06:37AM 25.1680 54.8180 286° West 374 430 13,100 2,160 Climbing FlightAware
06:38AM 25.1900 54.7300 285° West 380 437 14,800 2,160 Climbing FlightAware
06:38AM 25.2080 54.6560 285° West 386 444 16,200 1,860 Climbing FlightAware
06:39AM 25.2270 54.5760 285° West 396 456 17,300 1,920 Climbing FlightAware
06:40AM 25.2480 54.4890 285° West 395 455 19,000 1,860 Climbing FlightAware
06:40AM 25.2670 54.4110 285° West 399 459 20,000 660 Climbing FlightAware
06:41AM 25.2880 54.3240 285° West 377 434 20,000  Level FlightAware
06:42AM 25.3030 54.2530 283° West 376 433 20,000  Level FlightAware
06:42AM 25.3080 54.1820 274° West 378 435 20,000  Level FlightAware
06:43AM 25.3070 54.0980 269° West 379 436 20,000 720 Level FlightAware
06:44AM 25.3050 54.0080 269° West 383 441 21,100 1,320 Climbing FlightAware
06:45AM 25.3030 53.9200 269° West 383 441 22,000 600 Climbing FlightAware
06:45AM 25.3010 53.8420 268° West 380 437 22,000  Level FlightAware
06:46AM 25.2990 53.7690 268° West 380 437 22,000  Level FlightAware
06:47AM 25.2980 53.6960 269° West 380 437 22,000  Level FlightAware
06:47AM 25.2950 53.6000 268° West 380 437 22,000  Level FlightAware
06:48AM 25.2930 53.5140 269° West 379 436 22,000  Level FlightAware
06:49AM 25.2910 53.4370 268° West 379 436 22,000  Level FlightAware
06:50AM 25.2890 53.3500 269° West 377 434 22,000  Level FlightAware
06:50AM 25.2870 53.2830 268° West 376 433 22,000  Level FlightAware
06:51AM 25.2850 53.2050 268° West 374 430 22,000 -240 Level FlightAware
06:52AM 25.2820 53.0960 268° West 374 430 21,600 -1,500 Descending FlightAware
06:53AM 25.2790 53.0070 268° West 377 434 19,400 -2,700 Descending FlightAware
06:53AM 25.2770 52.9320 268° West 386 444 17,800 -1,560 Descending FlightAware
06:54AM 25.2740 52.8400 268° West 350 403 17,200 -1,140 Descending FlightAware
06:55AM 25.2730 52.7740 269° West 341 392 16,200 -1,440 Descending FlightAware
06:55AM 25.2710 52.7020 268° West 329 379 15,300 -1,500 Descending FlightAware
06:56AM 25.2650 52.6610 261° West 327 376 14,600 -1,080 Descending FlightAware
06:56AM 25.2530 52.5970 258° West 326 375 14,100 -1,740 Descending FlightAware
06:57AM 25.2370 52.5220 257° West 324 373 12,200 -2,160 Descending FlightAware
06:58AM 25.2230 52.4500 258° West 318 366 11,100 -1,020 Descending FlightAware
06:59AM 25.2110 52.3890 258° West 293 337 10,800 -780 Descending FlightAware
06:59AM 25.1980 52.3240 258° West 282 325 10,000 -1,080 Descending FlightAware
07:00AM 25.1900 52.2830 258° West 281 323 9,400 -1,140 Descending FlightAware
07:01AM 25.1780 52.2210 258° West 276 318 8,600 -1,200 Descending FlightAware
07:01AM 25.1680 52.1730 257° West 275 316 7,900 -960 Descending FlightAware
07:03AM 25.1450 52.0590 257° West 247 284 6,700 -720 Descending FlightAware
07:03AM 25.1360 52.0130 258° West 242 278 6,500 -780 Descending FlightAware
07:05AM 25.1030 51.8500 287° West 4,100 -840 Descending FlightAware
07:06AM 25.1810 51.8524 287° West  Level Estimated
07:07AM 25.0750 51.7130 302° West 2,600  Level FlightAware
07:08AM 25.1740 51.7223 302° West  Level Estimated
07:08AM 25.0680 51.6750 259° West 188 216 2,400  Level FlightAware
07:09AM 25.0630 51.6430 260° West 183 211 2,300 -240 Descending FlightAware
07:10AM 25.1120 51.6310 347° North 174 200 2,100 -180 Descending FlightAware
07:10AM 25.1350 51.6200 337° Northwest 174 200 2,100 -120 Level FlightAware
07:10AM 25.1520 51.6130 340° North 158 182 2,000 -240 Descending FlightAware
07:11AM 25.1730 51.6040 339° North 158 182 1,900 -780 Descending FlightAware
07:11AM 25.1880 51.5970 337° Northwest 124 143 1,300 -840 Descending FlightAware
07:12AM 25.2070 51.5890 339° North 122 140 1,100 -720 Descending FlightAware
07:13AM 25.2390 51.5750 338° Northwest 126 145 300 -600 Descending FlightAware
07:13AM 25.2510 51.5690 336° Northwest 126 145 300  Level FlightAware
07:16AM 25.2611 51.5651 341° North  Level Estimated
07:17AM 25.2611 51.5651 324° Northwest  Level Estimated
07:18AM 25.2611 51.5651 324° Northwest  Level Estimated
07:19AM 25.2611 51.5651 324° Northwest  Level Estimated